createdAt,value
2023-04-27T00:01:02.668Z,0.57
2023-04-27T00:03:31.578Z,0.50
2023-04-27T00:06:00.159Z,0.87
2023-04-27T00:08:32.182Z,0.70
2023-04-27T00:11:00.840Z,0.67
2023-04-27T00:13:29.395Z,0.50
2023-04-27T00:15:58.010Z,0.57
2023-04-27T00:18:26.604Z,0.60
2023-04-27T00:20:55.039Z,0.57
2023-04-27T00:23:23.817Z,0.60
2023-04-27T00:25:53.784Z,0.43
2023-04-27T00:28:22.379Z,0.53
2023-04-27T00:30:54.142Z,0.60
2023-04-27T00:33:22.810Z,0.57
2023-04-27T00:35:51.270Z,0.60
2023-04-27T00:38:19.830Z,0.40
2023-04-27T00:40:48.419Z,0.60
2023-04-27T00:43:18.267Z,0.57
2023-04-27T00:45:47.395Z,0.50
2023-04-27T00:48:16.066Z,0.50
2023-04-27T00:50:44.638Z,0.50
2023-04-27T00:53:13.272Z,0.50
2023-04-27T00:55:41.788Z,0.57
2023-04-27T00:58:10.569Z,0.50
2023-04-27T01:00:41.123Z,0.50
2023-04-27T01:03:09.745Z,0.67
2023-04-27T01:05:39.096Z,0.70
2023-04-27T01:08:07.754Z,0.60
2023-04-27T01:10:37.494Z,0.50
2023-04-27T01:13:06.109Z,0.60
2023-04-27T01:15:34.675Z,0.70
2023-04-27T01:18:05.444Z,0.53
2023-04-27T01:20:34.118Z,0.60
2023-04-27T01:23:02.750Z,0.60
2023-04-27T01:25:32.779Z,0.60
2023-04-27T01:28:01.360Z,0.60
2023-04-27T01:30:30.425Z,0.50
2023-04-27T01:32:58.978Z,0.70
2023-04-27T01:35:28.477Z,0.57
2023-04-27T01:37:58.069Z,0.50
2023-04-27T01:40:26.508Z,0.50
2023-04-27T01:42:56.598Z,0.60
2023-04-27T01:45:25.193Z,0.70
2023-04-27T01:47:53.838Z,0.60
2023-04-27T01:50:22.549Z,0.60
2023-04-27T01:52:51.205Z,0.60
2023-04-27T01:55:20.789Z,0.67
2023-04-27T01:57:49.347Z,0.50
2023-04-27T02:00:19.785Z,0.50
2023-04-27T02:02:48.315Z,0.70
2023-04-27T02:05:16.999Z,0.67
2023-04-27T02:07:45.569Z,0.73
2023-04-27T02:10:14.050Z,0.77
2023-04-27T02:12:42.571Z,0.80
2023-04-27T02:15:11.613Z,0.60
2023-04-27T02:17:41.496Z,0.67
2023-04-27T02:20:10.929Z,0.70
2023-04-27T02:22:39.586Z,0.80
2023-04-27T02:25:08.523Z,0.63
2023-04-27T02:27:38.908Z,1.00
2023-04-27T02:30:08.643Z,0.87
2023-04-27T02:32:37.818Z,0.70
2023-04-27T02:35:08.494Z,0.70
2023-04-27T02:37:37.215Z,0.70
2023-04-27T02:40:07.925Z,0.70
2023-04-27T02:42:38.244Z,0.50
2023-04-27T02:45:08.320Z,1.00
2023-04-27T02:47:37.089Z,0.63
2023-04-27T02:50:05.930Z,0.97
2023-04-27T02:52:36.095Z,0.70
2023-04-27T02:55:04.682Z,0.70
2023-04-27T02:57:33.163Z,0.70
2023-04-27T03:00:03.305Z,0.80
2023-04-27T03:02:32.578Z,1.03
2023-04-27T03:05:01.554Z,0.90
2023-04-27T03:07:31.761Z,0.90
2023-04-27T03:10:01.840Z,0.70
2023-04-27T03:12:30.281Z,0.47
2023-04-27T03:14:59.799Z,0.93
2023-04-27T03:17:28.529Z,0.77
2023-04-27T03:19:56.998Z,0.70
2023-04-27T03:22:25.669Z,0.90
2023-04-27T03:24:54.226Z,0.80
2023-04-27T03:27:24.169Z,0.53
2023-04-27T03:29:53.942Z,0.80
2023-04-27T03:32:22.630Z,0.63
2023-04-27T03:34:51.095Z,0.67
2023-04-27T03:37:19.679Z,0.80
2023-04-27T03:39:48.306Z,0.80
2023-04-27T03:42:16.772Z,1.07
2023-04-27T03:44:46.783Z,0.77
2023-04-27T03:47:15.368Z,0.70
2023-04-27T03:49:43.814Z,0.73
2023-04-27T03:52:12.533Z,0.70
2023-04-27T03:54:41.380Z,0.70
2023-04-27T03:57:09.848Z,0.80
2023-04-27T03:59:38.410Z,0.90
2023-04-27T04:02:09.698Z,0.80
2023-04-27T04:04:38.456Z,0.60
2023-04-27T04:07:07.234Z,0.90
2023-04-27T04:09:35.826Z,0.93
2023-04-27T04:12:04.284Z,0.77
2023-04-27T04:14:32.914Z,0.60
2023-04-27T04:17:01.447Z,0.77
2023-04-27T04:19:31.328Z,0.83
2023-04-27T04:22:00.031Z,0.90
2023-04-27T04:24:28.600Z,0.80
2023-04-27T04:26:57.093Z,0.80
2023-04-27T04:29:25.798Z,0.73
2023-04-27T04:31:54.478Z,0.90
2023-04-27T04:34:22.941Z,0.80
2023-04-27T04:36:53.175Z,0.80
2023-04-27T04:39:21.954Z,0.67
2023-04-27T04:41:50.553Z,0.70
2023-04-27T04:44:19.572Z,0.80
2023-04-27T04:46:48.530Z,0.77
2023-04-27T04:49:19.392Z,0.73
2023-04-27T04:51:47.897Z,0.77
2023-04-27T04:54:17.855Z,0.77
2023-04-27T04:56:46.521Z,0.70
2023-04-27T04:59:15.244Z,0.67
2023-04-27T05:01:43.877Z,0.80
2023-04-27T05:04:12.644Z,0.80
2023-04-27T05:06:41.330Z,0.97
2023-04-27T05:09:09.786Z,0.90
2023-04-27T05:11:39.781Z,0.90
2023-04-27T05:14:08.372Z,0.80
2023-04-27T05:16:36.909Z,0.83
2023-04-27T05:19:06.389Z,0.80
2023-04-27T05:21:34.943Z,0.63
2023-04-27T05:24:03.424Z,0.70
2023-04-27T05:26:32.001Z,0.80
2023-04-27T05:29:02.076Z,0.80
2023-04-27T05:31:30.607Z,0.70
2023-04-27T05:33:59.071Z,0.70
2023-04-27T05:36:28.733Z,0.90
2023-04-27T05:38:57.260Z,0.80
2023-04-27T05:41:25.754Z,0.70
2023-04-27T05:43:54.693Z,0.70
2023-04-27T05:46:24.721Z,0.60
2023-04-27T05:48:53.205Z,0.63
2023-04-27T05:51:21.994Z,0.67
2023-04-27T05:53:50.567Z,0.60
2023-04-27T05:56:19.151Z,0.60
2023-04-27T05:58:47.718Z,0.70
2023-04-27T06:01:16.223Z,0.70
2023-04-27T06:03:46.338Z,0.77
2023-04-27T06:06:15.235Z,0.60
2023-04-27T06:08:43.683Z,0.80
2023-04-27T06:11:12.201Z,0.50
2023-04-27T06:13:40.857Z,0.70
2023-04-27T06:16:09.470Z,0.50
2023-04-27T06:18:38.065Z,0.50
2023-04-27T06:21:08.793Z,0.33
2023-04-27T06:23:37.250Z,0.60
2023-04-27T06:26:05.905Z,0.40
2023-04-27T06:28:34.716Z,0.50
2023-04-27T06:31:03.334Z,0.50
2023-04-27T06:33:31.808Z,0.40
2023-04-27T06:36:00.443Z,0.40
2023-04-27T06:38:30.285Z,0.40
2023-04-27T06:40:59.289Z,0.40
2023-04-27T06:43:27.971Z,0.50
2023-04-27T06:45:56.746Z,0.40
2023-04-27T06:48:25.322Z,0.33
2023-04-27T06:50:53.926Z,0.30
2023-04-27T06:53:22.504Z,0.30
2023-04-27T06:55:52.557Z,0.30
2023-04-27T06:58:21.114Z,0.30
2023-04-27T07:00:50.059Z,0.40
2023-04-27T07:03:18.698Z,0.30
2023-04-27T07:05:47.376Z,0.30
2023-04-27T07:08:15.957Z,0.23
2023-04-27T07:10:44.428Z,0.20
2023-04-27T07:13:14.525Z,0.20
2023-04-27T07:15:43.143Z,0.30
2023-04-27T07:18:12.337Z,0.30
2023-04-27T07:20:41.064Z,0.10
2023-04-27T07:23:09.676Z,0.37
2023-04-27T07:25:40.376Z,0.10
2023-04-27T07:28:09.011Z,0.20
2023-04-27T07:30:39.215Z,0.20
2023-04-27T07:33:07.895Z,0.10
2023-04-27T07:35:36.454Z,0.23
2023-04-27T07:38:05.081Z,0.20
2023-04-27T07:40:34.562Z,0.37
2023-04-27T07:43:03.064Z,0.20
2023-04-27T07:45:33.188Z,0.40
2023-04-27T07:48:04.437Z,0.13
2023-04-27T07:50:33.508Z,0.20
2023-04-27T07:53:01.969Z,0.10
2023-04-27T07:55:30.658Z,0.10
2023-04-27T07:57:59.242Z,0.17
2023-04-27T08:00:28.317Z,0.13
2023-04-27T08:02:57.193Z,0.10
2023-04-27T08:05:28.065Z,0.30
2023-04-27T08:07:57.035Z,0.40
2023-04-27T08:10:26.026Z,0.10
2023-04-27T08:12:54.684Z,0.10
2023-04-27T08:15:23.138Z,0.20
2023-04-27T08:17:51.893Z,0.10
2023-04-27T08:20:20.645Z,0.00
2023-04-27T08:22:54.204Z,0.10
2023-04-27T08:25:23.074Z,0.00
2023-04-27T08:27:51.555Z,0.10
2023-04-27T08:30:20.003Z,0.10
2023-04-27T08:32:49.040Z,0.30
2023-04-27T08:35:17.725Z,0.10
2023-04-27T08:37:46.518Z,0.20
2023-04-27T08:40:16.876Z,0.00
2023-04-27T08:42:56.176Z,0.10
2023-04-27T08:45:25.322Z,0.10
2023-04-27T08:47:53.959Z,0.13
2023-04-27T08:50:24.174Z,0.10
2023-04-27T08:52:54.876Z,0.10
2023-04-27T08:55:24.837Z,0.00
2023-04-27T08:57:58.008Z,0.20
2023-04-27T09:00:27.294Z,0.10
2023-04-27T09:02:56.008Z,0.10
2023-04-27T09:05:25.251Z,0.30
2023-04-27T09:08:00.805Z,0.10
2023-04-27T09:10:30.982Z,0.10
2023-04-27T09:13:01.086Z,0.10
2023-04-27T09:15:29.996Z,0.03
2023-04-27T09:17:59.232Z,0.20
2023-04-27T09:20:28.774Z,0.20
2023-04-27T09:22:58.903Z,0.20
2023-04-27T09:25:28.904Z,0.10
2023-04-27T09:27:59.370Z,0.20
2023-04-27T09:30:28.390Z,0.10
2023-04-27T09:32:57.777Z,0.20
2023-04-27T09:35:27.052Z,0.10
2023-04-27T09:37:56.178Z,0.13
2023-04-27T09:40:26.765Z,0.13
2023-04-27T09:42:56.005Z,0.10
2023-04-27T09:45:26.644Z,0.20
2023-04-27T09:47:55.786Z,0.10
2023-04-27T09:50:24.319Z,0.00
2023-04-27T09:52:52.803Z,0.10
2023-04-27T09:55:23.150Z,0.10
2023-04-27T09:57:55.793Z,0.10
2023-04-27T10:00:32.721Z,0.00
2023-04-27T10:03:07.885Z,0.00
2023-04-27T10:05:43.762Z,0.00
2023-04-27T10:08:12.896Z,0.00
2023-04-27T10:10:45.174Z,0.40
2023-04-27T10:13:22.546Z,0.17
2023-04-27T10:15:52.705Z,0.17
2023-04-27T10:18:28.683Z,0.10
2023-04-27T10:20:57.532Z,0.10
2023-04-27T10:23:26.745Z,0.10
2023-04-27T10:25:55.806Z,0.10
2023-04-27T10:28:24.469Z,0.10
2023-04-27T10:30:54.453Z,0.10
2023-04-27T10:33:24.216Z,0.10
2023-04-27T10:35:57.492Z,0.10
2023-04-27T10:38:30.048Z,0.03
2023-04-27T10:41:02.175Z,0.20
2023-04-27T10:43:31.946Z,0.10
2023-04-27T10:46:11.786Z,0.20
2023-04-27T10:48:40.778Z,0.10
2023-04-27T10:51:09.407Z,0.10
2023-04-27T10:53:38.370Z,0.20
2023-04-27T10:56:08.133Z,0.13
2023-04-27T10:58:47.987Z,0.10
2023-04-27T11:01:27.077Z,0.10
2023-04-27T11:03:58.954Z,0.10
2023-04-27T11:06:28.351Z,0.20
2023-04-27T11:08:57.189Z,0.20
2023-04-27T11:11:26.423Z,0.10
2023-04-27T11:13:56.013Z,0.10
2023-04-27T11:16:25.313Z,0.03
2023-04-27T11:18:56.965Z,0.10
2023-04-27T11:21:28.659Z,0.20
2023-04-27T11:23:58.047Z,0.20
2023-04-27T11:26:26.856Z,0.20
2023-04-27T11:29:00.017Z,0.10
2023-04-27T11:31:29.098Z,0.10
2023-04-27T11:33:59.140Z,0.23
2023-04-27T11:36:28.135Z,0.10
2023-04-27T11:39:00.189Z,0.10
2023-04-27T11:41:34.922Z,0.20
2023-04-27T11:44:07.458Z,0.23
2023-04-27T11:46:38.004Z,0.30
2023-04-27T11:49:09.048Z,0.07
2023-04-27T11:51:37.777Z,0.10
2023-04-27T11:54:06.869Z,0.20
2023-04-27T11:56:39.308Z,0.20
2023-04-27T11:59:08.497Z,0.20
2023-04-27T12:01:38.459Z,0.10
2023-04-27T12:04:08.629Z,0.10
2023-04-27T12:06:38.438Z,0.10
2023-04-27T12:09:07.175Z,0.13
2023-04-27T12:11:35.766Z,0.20
2023-04-27T12:14:05.007Z,0.07
2023-04-27T12:16:34.093Z,0.10
2023-04-27T12:19:02.585Z,0.10
2023-04-27T12:21:34.182Z,0.10
2023-04-27T12:24:02.786Z,0.20
2023-04-27T12:26:31.260Z,0.13
2023-04-27T12:28:59.800Z,0.17
2023-04-27T12:31:28.404Z,0.20
2023-04-27T12:33:56.914Z,0.20
2023-04-27T12:36:27.247Z,0.30
2023-04-27T12:38:59.953Z,0.50
2023-04-27T12:41:28.589Z,0.20
2023-04-27T12:43:57.144Z,0.30
2023-04-27T12:46:25.669Z,0.30
2023-04-27T12:48:56.358Z,0.30
2023-04-27T12:51:25.023Z,0.10
2023-04-27T12:53:53.533Z,0.03
2023-04-27T12:56:24.180Z,0.17
2023-04-27T12:58:52.742Z,0.20
2023-04-27T13:01:24.764Z,0.20
2023-04-27T13:03:53.823Z,0.20
2023-04-27T13:06:23.077Z,0.30
2023-04-27T13:08:51.609Z,0.27
2023-04-27T13:11:20.166Z,0.10
2023-04-27T13:13:50.163Z,0.20
2023-04-27T13:16:19.356Z,0.10
2023-04-27T13:18:49.898Z,0.30
2023-04-27T13:21:18.486Z,0.30
2023-04-27T13:23:47.837Z,0.10
2023-04-27T13:26:16.788Z,0.30
2023-04-27T13:28:46.201Z,0.10
2023-04-27T13:31:16.080Z,0.30
2023-04-27T13:33:45.272Z,0.40
2023-04-27T13:36:14.547Z,0.07
2023-04-27T13:38:43.032Z,0.20
2023-04-27T13:41:11.673Z,0.20
2023-04-27T13:43:40.348Z,0.20
2023-04-27T13:46:08.869Z,0.10
2023-04-27T13:48:38.876Z,0.20
2023-04-27T13:51:07.418Z,0.20
2023-04-27T13:53:35.850Z,0.07
2023-04-27T13:56:04.406Z,0.20
2023-04-27T13:58:33.686Z,0.10
2023-04-27T14:01:02.234Z,0.10
2023-04-27T14:03:30.985Z,0.10
2023-04-27T14:06:01.586Z,0.10
2023-04-27T14:08:30.067Z,0.30
2023-04-27T14:10:58.658Z,0.10
2023-04-27T14:13:27.202Z,0.20
2023-04-27T14:15:55.759Z,0.23
2023-04-27T14:18:31.961Z,0.20
2023-04-27T14:21:02.531Z,0.30
2023-04-27T14:23:31.451Z,0.10
2023-04-27T14:25:59.902Z,0.20
2023-04-27T14:28:28.495Z,0.20
2023-04-27T14:30:57.384Z,0.10
2023-04-27T14:33:26.084Z,0.00
2023-04-27T14:35:54.553Z,0.10
2023-04-27T14:38:24.957Z,0.20
2023-04-27T14:40:53.422Z,0.20
2023-04-27T14:43:21.972Z,0.00
2023-04-27T14:45:54.174Z,0.20
2023-04-27T14:48:24.107Z,0.10
2023-04-27T14:50:52.894Z,0.17
2023-04-27T14:53:21.624Z,0.30
2023-04-27T14:55:51.530Z,0.13
2023-04-27T14:58:20.198Z,0.20
2023-04-27T15:00:48.648Z,0.30
2023-04-27T15:03:18.138Z,0.10
2023-04-27T15:05:46.858Z,0.10
2023-04-27T15:08:15.357Z,0.23
2023-04-27T15:10:45.236Z,0.20
2023-04-27T15:13:15.481Z,0.20
2023-04-27T15:15:45.588Z,0.10
2023-04-27T15:18:14.226Z,0.20
2023-04-27T15:20:43.649Z,0.20
2023-04-27T15:23:13.094Z,0.20
2023-04-27T15:25:41.619Z,0.13
2023-04-27T15:28:10.432Z,0.00
2023-04-27T15:30:40.500Z,0.13
2023-04-27T15:33:10.429Z,0.10
2023-04-27T15:35:40.512Z,0.00
2023-04-27T15:38:09.523Z,0.10
2023-04-27T15:40:38.128Z,0.13
2023-04-27T15:43:06.998Z,0.20
2023-04-27T15:45:35.486Z,0.13
2023-04-27T15:48:08.466Z,0.10
2023-04-27T15:50:37.014Z,0.10
2023-04-27T15:53:05.636Z,0.10
2023-04-27T15:55:34.218Z,0.07
2023-04-27T15:58:02.832Z,0.00
2023-04-27T16:00:31.752Z,0.20
2023-04-27T16:03:00.732Z,0.00
2023-04-27T16:05:30.884Z,0.13
2023-04-27T16:07:59.488Z,0.00
2023-04-27T16:10:28.031Z,0.20
2023-04-27T16:12:56.546Z,0.10
2023-04-27T16:15:25.161Z,0.10
2023-04-27T16:17:53.796Z,0.20
2023-04-27T16:20:22.686Z,0.10
2023-04-27T16:22:52.772Z,0.40
2023-04-27T16:25:21.595Z,0.10
2023-04-27T16:27:50.163Z,0.20
2023-04-27T16:30:18.811Z,0.10
2023-04-27T16:32:48.279Z,0.10
2023-04-27T16:35:17.863Z,0.20
2023-04-27T16:37:46.461Z,0.10
2023-04-27T16:40:16.701Z,0.10
2023-04-27T16:42:45.217Z,0.10
2023-04-27T16:45:13.761Z,0.10
2023-04-27T16:47:42.721Z,0.10
2023-04-27T16:50:11.904Z,0.10
2023-04-27T16:52:40.646Z,0.00
2023-04-27T16:55:09.613Z,0.00
2023-04-27T16:57:39.477Z,0.10
2023-04-27T17:00:09.673Z,0.10
2023-04-27T17:02:39.474Z,0.10
2023-04-27T17:05:10.288Z,0.17
2023-04-27T17:07:38.787Z,0.10
2023-04-27T17:10:09.392Z,0.20
2023-04-27T17:12:39.436Z,0.10
2023-04-27T17:15:08.477Z,0.20
2023-04-27T17:17:37.330Z,0.13
2023-04-27T17:20:07.245Z,0.20
2023-04-27T17:22:35.735Z,0.17
2023-04-27T17:25:04.281Z,0.30
2023-04-27T17:27:32.863Z,0.40
2023-04-27T17:30:02.710Z,0.30
2023-04-27T17:32:31.325Z,0.00
2023-04-27T17:34:59.936Z,0.10
2023-04-27T17:37:28.417Z,0.30
2023-04-27T17:39:57.009Z,0.20
2023-04-27T17:42:25.553Z,0.50
2023-04-27T17:44:54.003Z,0.53
2023-04-27T17:47:25.490Z,0.40
2023-04-27T17:49:54.019Z,0.50
2023-04-27T17:52:22.480Z,0.40
2023-04-27T17:54:51.072Z,0.40
2023-04-27T17:57:19.691Z,0.30
2023-04-27T17:59:48.185Z,0.10
2023-04-27T18:02:17.178Z,0.20
2023-04-27T18:04:47.188Z,0.20
2023-04-27T18:07:18.642Z,0.20
2023-04-27T18:09:47.274Z,0.20
2023-04-27T18:12:15.750Z,0.20
2023-04-27T18:14:44.544Z,0.13
2023-04-27T18:17:13.188Z,0.20
2023-04-27T18:19:42.007Z,0.20
2023-04-27T18:22:12.090Z,0.10
2023-04-27T18:24:40.664Z,0.30
2023-04-27T18:27:09.124Z,0.10
2023-04-27T18:29:37.657Z,0.30
2023-04-27T18:32:06.770Z,0.10
2023-04-27T18:34:35.502Z,0.30
2023-04-27T18:37:04.051Z,0.33
2023-04-27T18:39:33.983Z,0.53
2023-04-27T18:42:02.465Z,0.30
2023-04-27T18:44:31.040Z,0.40
2023-04-27T18:47:00.073Z,0.20
2023-04-27T18:49:28.592Z,0.20
2023-04-27T18:51:57.279Z,0.20
2023-04-27T18:54:25.746Z,0.17
2023-04-27T18:56:55.931Z,0.30
2023-04-27T18:59:24.666Z,0.30
2023-04-27T19:01:53.490Z,0.20
2023-04-27T19:04:22.178Z,0.30
2023-04-27T19:06:51.164Z,0.40
2023-04-27T19:09:19.974Z,0.40
2023-04-27T19:11:56.085Z,0.40
2023-04-27T19:14:32.767Z,0.33
2023-04-27T19:17:01.295Z,0.33
2023-04-27T19:19:29.853Z,0.50
2023-04-27T19:22:00.060Z,0.13
2023-04-27T19:24:28.536Z,0.30
2023-04-27T19:26:57.011Z,0.40
2023-04-27T19:29:26.597Z,0.20
2023-04-27T19:31:56.751Z,0.20
2023-04-27T19:34:25.207Z,0.40
2023-04-27T19:36:53.851Z,0.13
2023-04-27T19:39:22.313Z,0.30
2023-04-27T19:41:50.863Z,0.30
2023-04-27T19:44:19.536Z,0.30
2023-04-27T19:46:48.125Z,0.40
2023-04-27T19:49:18.063Z,0.37
2023-04-27T19:51:47.042Z,0.30
2023-04-27T19:54:16.017Z,0.67
2023-04-27T19:56:44.619Z,0.90
2023-04-27T19:59:13.254Z,1.00
2023-04-27T20:01:42.263Z,1.23
2023-04-27T20:04:11.099Z,1.47
2023-04-27T20:06:43.447Z,1.03
2023-04-27T20:09:12.332Z,1.10
2023-04-27T20:11:40.836Z,1.17
2023-04-27T20:14:09.374Z,1.23
2023-04-27T20:16:38.056Z,1.10
2023-04-27T20:19:06.986Z,0.93
2023-04-27T20:21:35.729Z,1.10
2023-04-27T20:24:05.831Z,0.97
2023-04-27T20:26:34.340Z,0.90
2023-04-27T20:29:02.900Z,0.90
2023-04-27T20:31:31.441Z,0.63
2023-04-27T20:33:59.950Z,0.80
2023-04-27T20:36:28.620Z,0.80
2023-04-27T20:39:00.858Z,0.80
2023-04-27T20:41:30.896Z,0.97
2023-04-27T20:44:00.263Z,0.50
2023-04-27T20:46:28.785Z,0.80
2023-04-27T20:48:57.385Z,0.57
2023-04-27T20:51:26.322Z,0.47
2023-04-27T20:53:54.783Z,0.60
2023-04-27T20:56:23.398Z,0.60
2023-04-27T20:58:53.247Z,0.40
2023-04-27T21:01:21.763Z,0.40
2023-04-27T21:03:50.809Z,0.70
2023-04-27T21:06:19.510Z,0.30
2023-04-27T21:08:47.939Z,0.20
2023-04-27T21:11:18.167Z,0.40
2023-04-27T21:13:46.828Z,0.40
2023-04-27T21:16:16.740Z,0.40
2023-04-27T21:18:45.515Z,0.33
2023-04-27T21:21:13.987Z,0.30
2023-04-27T21:23:42.448Z,0.30
2023-04-27T21:26:11.486Z,0.40
2023-04-27T21:28:40.614Z,0.20
2023-04-27T21:31:09.119Z,0.30
2023-04-27T21:33:39.033Z,0.37
2023-04-27T21:36:07.951Z,0.20
2023-04-27T21:38:36.492Z,0.40
2023-04-27T21:41:05.168Z,0.40
2023-04-27T21:43:33.842Z,0.27
2023-04-27T21:46:02.364Z,0.20
2023-04-27T21:48:31.062Z,0.30
2023-04-27T21:51:00.963Z,0.30
2023-04-27T21:53:29.571Z,0.30
2023-04-27T21:55:58.431Z,0.23
2023-04-27T21:58:27.186Z,0.37
2023-04-27T22:00:55.690Z,0.40
2023-04-27T22:03:24.380Z,0.40
2023-04-27T22:05:53.137Z,0.40
2023-04-27T22:08:23.434Z,0.30
2023-04-27T22:10:52.128Z,0.37
2023-04-27T22:13:20.874Z,0.20
2023-04-27T22:15:49.863Z,0.40
2023-04-27T22:18:18.770Z,0.30
2023-04-27T22:20:47.440Z,0.47
2023-04-27T22:23:15.937Z,0.40
2023-04-27T22:25:46.700Z,0.57
2023-04-27T22:28:15.291Z,0.63
2023-04-27T22:30:44.117Z,0.53
2023-04-27T22:33:12.847Z,0.70
2023-04-27T22:35:41.476Z,0.50
2023-04-27T22:38:11.074Z,0.57
2023-04-27T22:40:39.592Z,0.50
2023-04-27T22:43:09.591Z,0.40
2023-04-27T22:45:39.028Z,0.50
2023-04-27T22:48:08.036Z,0.50
2023-04-27T22:50:36.724Z,0.60
2023-04-27T22:53:05.204Z,0.70
2023-04-27T22:55:33.758Z,0.37
2023-04-27T22:58:02.332Z,0.40
2023-04-27T23:00:32.207Z,0.57
2023-04-27T23:03:01.034Z,0.80
2023-04-27T23:05:30.160Z,0.60
2023-04-27T23:07:59.874Z,0.70
2023-04-27T23:10:31.296Z,0.60
2023-04-27T23:13:01.448Z,0.80
2023-04-27T23:15:29.930Z,0.90
2023-04-27T23:18:00.168Z,1.10
2023-04-27T23:20:29.306Z,0.90
2023-04-27T23:22:58.031Z,0.87
2023-04-27T23:25:26.774Z,1.10
2023-04-27T23:27:55.263Z,1.00
2023-04-27T23:30:25.945Z,1.00
2023-04-27T23:32:54.727Z,0.90
2023-04-27T23:35:24.827Z,0.90
2023-04-27T23:37:55.351Z,0.63
2023-04-27T23:40:23.990Z,0.90
2023-04-27T23:42:52.585Z,1.10
2023-04-27T23:45:21.473Z,1.10
2023-04-27T23:47:50.113Z,0.97
2023-04-27T23:50:18.855Z,1.10
2023-04-27T23:52:49.684Z,1.30
2023-04-27T23:55:18.431Z,1.03
2023-04-27T23:57:47.047Z,1.20
